sensor_id;sensor_type;location;lat;lon;timestamp;temperature;humidity
33414;DHT22;60055;41.884;12.534;2023-02-01T00:01:50;7.20;99.90
33414;DHT22;60055;41.884;12.534;2023-02-01T00:04:16;7.20;99.90
33414;DHT22;60055;41.884;12.534;2023-02-01T00:06:41;7.20;99.90
33414;DHT22;60055;41.884;12.534;2023-02-01T00:09:07;7.20;99.90
33414;DHT22;60055;41.884;12.534;2023-02-01T00:11:33;7.10;99.90
33414;DHT22;60055;41.884;12.534;2023-02-01T00:13:59;7.20;99.90
33414;DHT22;60055;41.884;12.534;2023-02-01T00:16:27;7.00;99.90
33414;DHT22;60055;41.884;12.534;2023-02-01T00:19:02;7.10;99.90
33414;DHT22;60055;41.884;12.534;2023-02-01T00:21:29;7.00;99.90
33414;DHT22;60055;41.884;12.534;2023-02-01T00:23:54;7.00;99.90
33414;DHT22;60055;41.884;12.534;2023-02-01T00:26:27;7.00;99.90
33414;DHT22;60055;41.884;12.534;2023-02-01T00:28:55;6.90;99.90
33414;DHT22;60055;41.884;12.534;2023-02-01T00:31:21;7.00;99.90
33414;DHT22;60055;41.884;12.534;2023-02-01T00:33:47;7.00;99.90
33414;DHT22;60055;41.884;12.534;2023-02-01T00:36:13;6.90;99.90
33414;DHT22;60055;41.884;12.534;2023-02-01T00:38:39;6.90;99.90
33414;DHT22;60055;41.884;12.534;2023-02-01T00:41:15;6.80;99.90
33414;DHT22;60055;41.884;12.534;2023-02-01T00:43:41;6.90;99.90
33414;DHT22;60055;41.884;12.534;2023-02-01T00:46:07;6.90;99.90
33414;DHT22;60055;41.884;12.534;2023-02-01T00:48:33;6.90;99.90
33414;DHT22;60055;41.884;12.534;2023-02-01T00:51:00;6.90;99.90
33414;DHT22;60055;41.884;12.534;2023-02-01T00:53:26;6.90;99.90
33414;DHT22;60055;41.884;12.534;2023-02-01T00:55:51;6.90;99.90
33414;DHT22;60055;41.884;12.534;2023-02-01T00:58:19;6.90;99.90
33414;DHT22;60055;41.884;12.534;2023-02-01T01:00:45;7.00;99.90
33414;DHT22;60055;41.884;12.534;2023-02-01T01:03:11;6.90;99.90
33414;DHT22;60055;41.884;12.534;2023-02-01T01:05:48;7.00;99.90
33414;DHT22;60055;41.884;12.534;2023-02-01T01:08:15;7.00;99.90
33414;DHT22;60055;41.884;12.534;2023-02-01T01:10:42;7.00;99.90
33414;DHT22;60055;41.884;12.534;2023-02-01T01:13:08;7.10;99.90
33414;DHT22;60055;41.884;12.534;2023-02-01T01:15:38;7.00;99.90
33414;DHT22;60055;41.884;12.534;2023-02-01T01:18:04;7.00;99.90
33414;DHT22;60055;41.884;12.534;2023-02-01T01:20:30;6.90;99.90
33414;DHT22;60055;41.884;12.534;2023-02-01T01:22:55;6.80;99.90
33414;DHT22;60055;41.884;12.534;2023-02-01T01:25:21;6.80;99.90
33414;DHT22;60055;41.884;12.534;2023-02-01T01:27:47;6.80;99.90
33414;DHT22;60055;41.884;12.534;2023-02-01T01:30:13;6.80;99.90
33414;DHT22;60055;41.884;12.534;2023-02-01T01:32:38;6.90;99.90
33414;DHT22;60055;41.884;12.534;2023-02-01T01:35:04;6.80;99.90
33414;DHT22;60055;41.884;12.534;2023-02-01T01:37:30;6.90;99.90
33414;DHT22;60055;41.884;12.534;2023-02-01T01:39:56;6.90;99.90
33414;DHT22;60055;41.884;12.534;2023-02-01T01:42:22;6.90;99.90
33414;DHT22;60055;41.884;12.534;2023-02-01T01:45:06;6.60;99.90
33414;DHT22;60055;41.884;12.534;2023-02-01T01:47:36;6.60;99.90
33414;DHT22;60055;41.884;12.534;2023-02-01T01:50:05;6.60;99.90
33414;DHT22;60055;41.884;12.534;2023-02-01T01:52:31;6.60;99.90
33414;DHT22;60055;41.884;12.534;2023-02-01T01:54:58;6.60;99.90
33414;DHT22;60055;41.884;12.534;2023-02-01T01:57:29;6.60;99.90
33414;DHT22;60055;41.884;12.534;2023-02-01T02:00:10;6.60;99.90
33414;DHT22;60055;41.884;12.534;2023-02-01T02:02:39;6.50;99.90
33414;DHT22;60055;41.884;12.534;2023-02-01T02:05:06;6.60;99.90
33414;DHT22;60055;41.884;12.534;2023-02-01T02:07:35;6.60;99.90
33414;DHT22;60055;41.884;12.534;2023-02-01T02:10:05;6.60;99.90
33414;DHT22;60055;41.884;12.534;2023-02-01T02:12:31;6.60;99.90
33414;DHT22;60055;41.884;12.534;2023-02-01T02:14:57;6.60;99.90
33414;DHT22;60055;41.884;12.534;2023-02-01T02:20:13;6.40;99.90
33414;DHT22;60055;41.884;12.534;2023-02-01T02:23:03;6.30;99.90
33414;DHT22;60055;41.884;12.534;2023-02-01T02:31:40;6.40;99.90
33414;DHT22;60055;41.884;12.534;2023-02-01T02:37:09;6.30;99.90
33414;DHT22;60055;41.884;12.534;2023-02-01T02:40:04;6.40;99.90
33414;DHT22;60055;41.884;12.534;2023-02-01T02:45:40;6.40;99.90
33414;DHT22;60055;41.884;12.534;2023-02-01T02:48:38;6.40;99.90
33414;DHT22;60055;41.884;12.534;2023-02-01T02:51:11;6.30;99.90
33414;DHT22;60055;41.884;12.534;2023-02-01T02:54:08;6.30;99.90
33414;DHT22;60055;41.884;12.534;2023-02-01T02:56:55;6.40;99.90
33414;DHT22;60055;41.884;12.534;2023-02-01T02:59:42;6.30;99.90
33414;DHT22;60055;41.884;12.534;2023-02-01T03:02:27;6.30;99.90
33414;DHT22;60055;41.884;12.534;2023-02-01T03:05:12;6.30;99.90
33414;DHT22;60055;41.884;12.534;2023-02-01T03:10:35;6.30;99.90
33414;DHT22;60055;41.884;12.534;2023-02-01T03:13:08;6.20;99.90
33414;DHT22;60055;41.884;12.534;2023-02-01T03:20:53;6.40;99.90
33414;DHT22;60055;41.884;12.534;2023-02-01T03:23:23;6.30;99.90
33414;DHT22;60055;41.884;12.534;2023-02-01T03:25:53;6.30;99.90
33414;DHT22;60055;41.884;12.534;2023-02-01T03:28:23;6.10;99.90
33414;DHT22;60055;41.884;12.534;2023-02-01T03:30:50;6.20;99.90
33414;DHT22;60055;41.884;12.534;2023-02-01T03:33:19;6.20;99.90
33414;DHT22;60055;41.884;12.534;2023-02-01T03:43:55;6.20;99.90
33414;DHT22;60055;41.884;12.534;2023-02-01T03:46:41;6.20;99.90
33414;DHT22;60055;41.884;12.534;2023-02-01T03:49:10;6.10;99.90
33414;DHT22;60055;41.884;12.534;2023-02-01T03:51:40;6.10;99.90
33414;DHT22;60055;41.884;12.534;2023-02-01T03:54:09;6.20;99.90
33414;DHT22;60055;41.884;12.534;2023-02-01T03:56:37;5.90;99.90
33414;DHT22;60055;41.884;12.534;2023-02-01T03:59:04;6.10;99.90
33414;DHT22;60055;41.884;12.534;2023-02-01T04:01:30;6.00;99.90
33414;DHT22;60055;41.884;12.534;2023-02-01T04:03:57;6.00;99.90
33414;DHT22;60055;41.884;12.534;2023-02-01T04:06:24;6.10;99.90
33414;DHT22;60055;41.884;12.534;2023-02-01T04:08:50;5.90;99.90
33414;DHT22;60055;41.884;12.534;2023-02-01T04:11:16;5.80;99.90
33414;DHT22;60055;41.884;12.534;2023-02-01T04:13:42;5.80;99.90
33414;DHT22;60055;41.884;12.534;2023-02-01T04:16:08;5.80;99.90
33414;DHT22;60055;41.884;12.534;2023-02-01T04:18:34;5.90;99.90
33414;DHT22;60055;41.884;12.534;2023-02-01T04:21:00;6.00;99.90
33414;DHT22;60055;41.884;12.534;2023-02-01T04:23:27;5.80;99.90
33414;DHT22;60055;41.884;12.534;2023-02-01T04:25:53;5.60;99.90
33414;DHT22;60055;41.884;12.534;2023-02-01T04:28:19;5.70;99.90
33414;DHT22;60055;41.884;12.534;2023-02-01T04:30:45;5.80;99.90
33414;DHT22;60055;41.884;12.534;2023-02-01T04:33:11;6.00;99.90
33414;DHT22;60055;41.884;12.534;2023-02-01T04:35:39;5.80;99.90
33414;DHT22;60055;41.884;12.534;2023-02-01T04:38:05;5.80;99.90
33414;DHT22;60055;41.884;12.534;2023-02-01T04:40:32;5.70;99.90
33414;DHT22;60055;41.884;12.534;2023-02-01T04:42:58;5.70;99.90
33414;DHT22;60055;41.884;12.534;2023-02-01T04:45:23;5.60;99.90
33414;DHT22;60055;41.884;12.534;2023-02-01T04:47:49;5.60;99.90
33414;DHT22;60055;41.884;12.534;2023-02-01T04:50:15;5.70;99.90
33414;DHT22;60055;41.884;12.534;2023-02-01T04:52:40;5.70;99.90
33414;DHT22;60055;41.884;12.534;2023-02-01T04:55:07;5.90;99.90
33414;DHT22;60055;41.884;12.534;2023-02-01T04:57:32;5.80;99.90
33414;DHT22;60055;41.884;12.534;2023-02-01T04:59:58;5.80;99.90
33414;DHT22;60055;41.884;12.534;2023-02-01T05:02:24;6.00;99.90
33414;DHT22;60055;41.884;12.534;2023-02-01T05:04:49;5.90;99.90
33414;DHT22;60055;41.884;12.534;2023-02-01T05:07:16;5.80;99.90
33414;DHT22;60055;41.884;12.534;2023-02-01T05:09:41;5.70;99.90
33414;DHT22;60055;41.884;12.534;2023-02-01T05:12:09;5.70;99.90
33414;DHT22;60055;41.884;12.534;2023-02-01T05:14:53;5.70;99.90
33414;DHT22;60055;41.884;12.534;2023-02-01T05:17:19;5.60;99.90
33414;DHT22;60055;41.884;12.534;2023-02-01T05:19:44;5.60;99.90
33414;DHT22;60055;41.884;12.534;2023-02-01T05:22:10;5.70;99.90
33414;DHT22;60055;41.884;12.534;2023-02-01T05:24:35;5.60;99.90
33414;DHT22;60055;41.884;12.534;2023-02-01T05:27:01;5.60;99.90
33414;DHT22;60055;41.884;12.534;2023-02-01T05:29:27;5.60;99.90
33414;DHT22;60055;41.884;12.534;2023-02-01T05:31:52;5.50;99.90
33414;DHT22;60055;41.884;12.534;2023-02-01T05:34:18;5.60;99.90
33414;DHT22;60055;41.884;12.534;2023-02-01T05:36:44;5.70;99.90
33414;DHT22;60055;41.884;12.534;2023-02-01T05:39:09;5.50;99.90
33414;DHT22;60055;41.884;12.534;2023-02-01T05:41:36;5.70;99.90
33414;DHT22;60055;41.884;12.534;2023-02-01T05:44:02;5.80;99.90
33414;DHT22;60055;41.884;12.534;2023-02-01T05:46:28;5.90;99.90
33414;DHT22;60055;41.884;12.534;2023-02-01T05:48:53;5.80;99.90
33414;DHT22;60055;41.884;12.534;2023-02-01T05:51:19;5.80;99.90
33414;DHT22;60055;41.884;12.534;2023-02-01T05:53:47;5.70;99.90
33414;DHT22;60055;41.884;12.534;2023-02-01T05:56:13;5.60;99.90
33414;DHT22;60055;41.884;12.534;2023-02-01T05:58:38;5.70;99.90
33414;DHT22;60055;41.884;12.534;2023-02-01T06:01:04;5.60;99.90
33414;DHT22;60055;41.884;12.534;2023-02-01T06:03:30;5.60;99.90
33414;DHT22;60055;41.884;12.534;2023-02-01T06:05:55;5.60;99.90
33414;DHT22;60055;41.884;12.534;2023-02-01T06:08:21;5.60;99.90
33414;DHT22;60055;41.884;12.534;2023-02-01T06:10:47;5.50;99.90
33414;DHT22;60055;41.884;12.534;2023-02-01T06:13:14;5.60;99.90
33414;DHT22;60055;41.884;12.534;2023-02-01T06:15:40;5.60;99.90
33414;DHT22;60055;41.884;12.534;2023-02-01T06:18:07;5.60;99.90
33414;DHT22;60055;41.884;12.534;2023-02-01T06:20:33;5.70;99.90
33414;DHT22;60055;41.884;12.534;2023-02-01T06:22:59;5.60;99.90
33414;DHT22;60055;41.884;12.534;2023-02-01T06:25:25;5.60;99.90
33414;DHT22;60055;41.884;12.534;2023-02-01T06:27:51;5.70;99.90
33414;DHT22;60055;41.884;12.534;2023-02-01T06:30:17;5.70;99.90
33414;DHT22;60055;41.884;12.534;2023-02-01T06:32:44;5.70;99.90
33414;DHT22;60055;41.884;12.534;2023-02-01T06:35:15;5.80;99.90
33414;DHT22;60055;41.884;12.534;2023-02-01T06:37:41;5.80;99.90
33414;DHT22;60055;41.884;12.534;2023-02-01T06:40:08;5.70;99.90
33414;DHT22;60055;41.884;12.534;2023-02-01T06:42:34;5.80;99.90
33414;DHT22;60055;41.884;12.534;2023-02-01T06:44:59;5.90;99.90
33414;DHT22;60055;41.884;12.534;2023-02-01T06:47:26;5.80;99.90
33414;DHT22;60055;41.884;12.534;2023-02-01T06:49:52;5.70;99.90
33414;DHT22;60055;41.884;12.534;2023-02-01T06:52:19;5.70;99.90
33414;DHT22;60055;41.884;12.534;2023-02-01T06:54:45;5.70;99.90
33414;DHT22;60055;41.884;12.534;2023-02-01T06:57:11;5.70;99.90
33414;DHT22;60055;41.884;12.534;2023-02-01T06:59:37;5.80;99.90
33414;DHT22;60055;41.884;12.534;2023-02-01T07:02:02;5.80;99.90
33414;DHT22;60055;41.884;12.534;2023-02-01T07:04:28;5.80;99.90
33414;DHT22;60055;41.884;12.534;2023-02-01T07:06:54;5.80;99.90
33414;DHT22;60055;41.884;12.534;2023-02-01T07:09:19;5.90;99.90
33414;DHT22;60055;41.884;12.534;2023-02-01T07:11:45;5.70;99.90
33414;DHT22;60055;41.884;12.534;2023-02-01T07:14:11;5.90;99.90
33414;DHT22;60055;41.884;12.534;2023-02-01T07:16:37;6.00;99.90
33414;DHT22;60055;41.884;12.534;2023-02-01T07:19:03;6.00;99.90
33414;DHT22;60055;41.884;12.534;2023-02-01T07:21:28;6.00;99.90
33414;DHT22;60055;41.884;12.534;2023-02-01T07:23:54;6.00;99.90
33414;DHT22;60055;41.884;12.534;2023-02-01T07:26:21;6.00;99.90
33414;DHT22;60055;41.884;12.534;2023-02-01T07:28:47;6.00;99.90
33414;DHT22;60055;41.884;12.534;2023-02-01T07:31:19;6.10;99.90
33414;DHT22;60055;41.884;12.534;2023-02-01T07:33:47;6.20;99.90
33414;DHT22;60055;41.884;12.534;2023-02-01T07:36:15;6.20;99.90
33414;DHT22;60055;41.884;12.534;2023-02-01T07:38:42;6.00;99.90
33414;DHT22;60055;41.884;12.534;2023-02-01T07:41:08;6.20;99.90
33414;DHT22;60055;41.884;12.534;2023-02-01T07:43:35;6.40;99.90
33414;DHT22;60055;41.884;12.534;2023-02-01T07:46:01;6.30;99.90
33414;DHT22;60055;41.884;12.534;2023-02-01T07:48:29;6.30;99.90
33414;DHT22;60055;41.884;12.534;2023-02-01T07:51:09;6.30;99.90
33414;DHT22;60055;41.884;12.534;2023-02-01T07:53:35;6.50;99.90
33414;DHT22;60055;41.884;12.534;2023-02-01T07:56:02;6.60;99.90
33414;DHT22;60055;41.884;12.534;2023-02-01T07:58:28;6.70;99.90
33414;DHT22;60055;41.884;12.534;2023-02-01T08:00:54;6.70;99.90
33414;DHT22;60055;41.884;12.534;2023-02-01T08:03:38;7.00;99.90
33414;DHT22;60055;41.884;12.534;2023-02-01T08:06:05;7.10;99.90
33414;DHT22;60055;41.884;12.534;2023-02-01T08:08:32;7.20;99.90
33414;DHT22;60055;41.884;12.534;2023-02-01T08:11:02;7.50;99.90
33414;DHT22;60055;41.884;12.534;2023-02-01T08:13:28;7.80;99.90
33414;DHT22;60055;41.884;12.534;2023-02-01T08:16:04;7.80;99.90
33414;DHT22;60055;41.884;12.534;2023-02-01T08:18:31;7.80;99.90
33414;DHT22;60055;41.884;12.534;2023-02-01T08:20:57;7.50;99.90
33414;DHT22;60055;41.884;12.534;2023-02-01T08:23:23;7.30;99.90
33414;DHT22;60055;41.884;12.534;2023-02-01T08:25:49;7.40;99.90
33414;DHT22;60055;41.884;12.534;2023-02-01T08:28:15;7.70;99.90
33414;DHT22;60055;41.884;12.534;2023-02-01T08:30:41;7.90;99.90
33414;DHT22;60055;41.884;12.534;2023-02-01T08:33:10;8.40;99.90
33414;DHT22;60055;41.884;12.534;2023-02-01T08:35:37;8.20;99.90
33414;DHT22;60055;41.884;12.534;2023-02-01T08:38:03;8.10;99.90
33414;DHT22;60055;41.884;12.534;2023-02-01T08:40:29;8.60;99.90
33414;DHT22;60055;41.884;12.534;2023-02-01T08:42:56;8.80;99.90
33414;DHT22;60055;41.884;12.534;2023-02-01T08:45:24;8.60;99.90
33414;DHT22;60055;41.884;12.534;2023-02-01T08:47:53;8.30;99.90
33414;DHT22;60055;41.884;12.534;2023-02-01T08:50:20;8.20;99.90
33414;DHT22;60055;41.884;12.534;2023-02-01T08:52:46;8.10;99.90
33414;DHT22;60055;41.884;12.534;2023-02-01T08:55:16;8.10;99.90
33414;DHT22;60055;41.884;12.534;2023-02-01T08:57:43;7.90;99.90
33414;DHT22;60055;41.884;12.534;2023-02-01T09:00:12;7.80;99.90
33414;DHT22;60055;41.884;12.534;2023-02-01T09:02:38;7.90;99.90
33414;DHT22;60055;41.884;12.534;2023-02-01T09:05:04;7.90;99.90
33414;DHT22;60055;41.884;12.534;2023-02-01T09:07:30;7.90;99.90
33414;DHT22;60055;41.884;12.534;2023-02-01T09:09:56;8.20;99.90
33414;DHT22;60055;41.884;12.534;2023-02-01T09:12:25;7.90;99.90
33414;DHT22;60055;41.884;12.534;2023-02-01T09:14:51;8.10;99.90
33414;DHT22;60055;41.884;12.534;2023-02-01T09:17:19;8.20;99.90
33414;DHT22;60055;41.884;12.534;2023-02-01T09:19:44;8.10;99.90
33414;DHT22;60055;41.884;12.534;2023-02-01T09:22:10;8.20;99.90
33414;DHT22;60055;41.884;12.534;2023-02-01T09:24:36;8.50;99.90
33414;DHT22;60055;41.884;12.534;2023-02-01T09:27:01;8.50;99.90
33414;DHT22;60055;41.884;12.534;2023-02-01T09:29:27;8.50;99.90
33414;DHT22;60055;41.884;12.534;2023-02-01T09:31:53;8.60;99.90
33414;DHT22;60055;41.884;12.534;2023-02-01T09:34:20;8.70;99.90
33414;DHT22;60055;41.884;12.534;2023-02-01T09:36:45;8.90;99.90
33414;DHT22;60055;41.884;12.534;2023-02-01T09:39:11;9.00;99.90
33414;DHT22;60055;41.884;12.534;2023-02-01T09:44:48;8.70;99.90
33414;DHT22;60055;41.884;12.534;2023-02-01T09:47:18;9.00;99.90
33414;DHT22;60055;41.884;12.534;2023-02-01T09:50:08;9.30;99.90
33414;DHT22;60055;41.884;12.534;2023-02-01T09:52:42;9.40;99.90
33414;DHT22;60055;41.884;12.534;2023-02-01T09:55:30;9.60;99.90
33414;DHT22;60055;41.884;12.534;2023-02-01T09:58:09;9.70;99.90
33414;DHT22;60055;41.884;12.534;2023-02-01T10:00:38;9.60;99.90
33414;DHT22;60055;41.884;12.534;2023-02-01T10:03:05;9.80;99.90
33414;DHT22;60055;41.884;12.534;2023-02-01T10:05:54;10.10;99.90
33414;DHT22;60055;41.884;12.534;2023-02-01T10:11:03;9.70;99.90
33414;DHT22;60055;41.884;12.534;2023-02-01T10:13:54;9.60;99.90
33414;DHT22;60055;41.884;12.534;2023-02-01T10:19:34;9.80;99.90
33414;DHT22;60055;41.884;12.534;2023-02-01T10:22:05;9.90;99.90
33414;DHT22;60055;41.884;12.534;2023-02-01T10:27:08;10.10;99.90
33414;DHT22;60055;41.884;12.534;2023-02-01T10:29:41;9.90;99.90
33414;DHT22;60055;41.884;12.534;2023-02-01T10:32:20;10.00;99.90
33414;DHT22;60055;41.884;12.534;2023-02-01T10:34:52;10.10;99.90
33414;DHT22;60055;41.884;12.534;2023-02-01T10:37:29;10.40;99.90
33414;DHT22;60055;41.884;12.534;2023-02-01T10:39:58;10.50;99.90
33414;DHT22;60055;41.884;12.534;2023-02-01T10:42:27;10.70;99.90
33414;DHT22;60055;41.884;12.534;2023-02-01T10:44:59;10.60;99.90
33414;DHT22;60055;41.884;12.534;2023-02-01T10:47:26;10.40;99.90
33414;DHT22;60055;41.884;12.534;2023-02-01T10:50:12;10.60;99.90
33414;DHT22;60055;41.884;12.534;2023-02-01T10:55:40;10.70;99.90
33414;DHT22;60055;41.884;12.534;2023-02-01T11:00:45;10.70;99.90
33414;DHT22;60055;41.884;12.534;2023-02-01T11:03:42;10.60;99.90
33414;DHT22;60055;41.884;12.534;2023-02-01T11:06:38;10.60;99.90
33414;DHT22;60055;41.884;12.534;2023-02-01T11:11:33;11.00;99.90
33414;DHT22;60055;41.884;12.534;2023-02-01T11:14:38;10.90;99.90
33414;DHT22;60055;41.884;12.534;2023-02-01T11:17:23;10.90;99.90
33414;DHT22;60055;41.884;12.534;2023-02-01T11:19:57;10.90;99.90
33414;DHT22;60055;41.884;12.534;2023-02-01T11:22:25;10.90;99.90
33414;DHT22;60055;41.884;12.534;2023-02-01T11:24:52;10.90;99.90
33414;DHT22;60055;41.884;12.534;2023-02-01T11:27:20;10.90;99.90
33414;DHT22;60055;41.884;12.534;2023-02-01T11:29:51;11.00;99.90
33414;DHT22;60055;41.884;12.534;2023-02-01T11:32:20;11.10;99.90
33414;DHT22;60055;41.884;12.534;2023-02-01T11:34:55;11.20;99.90
33414;DHT22;60055;41.884;12.534;2023-02-01T11:37:33;11.20;99.90
33414;DHT22;60055;41.884;12.534;2023-02-01T11:40:03;11.20;99.90
33414;DHT22;60055;41.884;12.534;2023-02-01T11:42:29;11.40;99.90
33414;DHT22;60055;41.884;12.534;2023-02-01T11:45:28;11.30;99.90
33414;DHT22;60055;41.884;12.534;2023-02-01T11:47:56;11.40;99.90
33414;DHT22;60055;41.884;12.534;2023-02-01T11:50:44;11.60;99.90
33414;DHT22;60055;41.884;12.534;2023-02-01T12:01:30;11.90;99.90
33414;DHT22;60055;41.884;12.534;2023-02-01T12:06:56;12.10;99.90
33414;DHT22;60055;41.884;12.534;2023-02-01T12:12:16;12.40;99.90
33414;DHT22;60055;41.884;12.534;2023-02-01T12:22:44;12.80;99.90
33414;DHT22;60055;41.884;12.534;2023-02-01T12:25:30;12.60;99.90
33414;DHT22;60055;41.884;12.534;2023-02-01T12:41:32;12.50;99.90
33414;DHT22;60055;41.884;12.534;2023-02-01T12:46:37;12.50;99.90
33414;DHT22;60055;41.884;12.534;2023-02-01T12:52:02;12.70;99.90
33414;DHT22;60055;41.884;12.534;2023-02-01T12:54:50;12.80;99.90
33414;DHT22;60055;41.884;12.534;2023-02-01T12:57:27;12.80;99.90
33414;DHT22;60055;41.884;12.534;2023-02-01T13:02:50;13.00;99.90
33414;DHT22;60055;41.884;12.534;2023-02-01T13:07:57;13.00;99.90
33414;DHT22;60055;41.884;12.534;2023-02-01T13:10:43;13.00;99.90
33414;DHT22;60055;41.884;12.534;2023-02-01T13:19:00;12.60;99.90
33414;DHT22;60055;41.884;12.534;2023-02-01T13:21:33;12.40;99.90
33414;DHT22;60055;41.884;12.534;2023-02-01T13:24:00;12.30;99.90
33414;DHT22;60055;41.884;12.534;2023-02-01T13:26:26;12.20;99.90
33414;DHT22;60055;41.884;12.534;2023-02-01T13:29:05;12.20;99.90
33414;DHT22;60055;41.884;12.534;2023-02-01T13:39:33;12.50;99.90
33414;DHT22;60055;41.884;12.534;2023-02-01T13:42:21;12.60;99.90
33414;DHT22;60055;41.884;12.534;2023-02-01T13:44:55;12.40;99.90
33414;DHT22;60055;41.884;12.534;2023-02-01T13:47:28;12.30;99.90
33414;DHT22;60055;41.884;12.534;2023-02-01T13:49:57;12.50;99.90
33414;DHT22;60055;41.884;12.534;2023-02-01T13:52:28;12.60;99.90
33414;DHT22;60055;41.884;12.534;2023-02-01T13:57:48;12.60;99.90
33414;DHT22;60055;41.884;12.534;2023-02-01T14:23:45;12.80;99.90
33414;DHT22;60055;41.884;12.534;2023-02-01T14:26:17;12.70;99.90
33414;DHT22;60055;41.884;12.534;2023-02-01T14:31:39;12.60;99.90
33414;DHT22;60055;41.884;12.534;2023-02-01T14:37:04;12.50;99.90
33414;DHT22;60055;41.884;12.534;2023-02-01T14:42:24;12.40;99.90
33414;DHT22;60055;41.884;12.534;2023-02-01T14:44:55;12.30;99.90
33414;DHT22;60055;41.884;12.534;2023-02-01T14:52:36;12.30;99.90
33414;DHT22;60055;41.884;12.534;2023-02-01T14:55:35;12.30;99.90
33414;DHT22;60055;41.884;12.534;2023-02-01T14:57:59;12.20;99.90
33414;DHT22;60055;41.884;12.534;2023-02-01T15:00:29;12.20;99.90
33414;DHT22;60055;41.884;12.534;2023-02-01T15:05:55;12.10;99.90
33414;DHT22;60055;41.884;12.534;2023-02-01T15:08:26;12.20;99.90
33414;DHT22;60055;41.884;12.534;2023-02-01T15:10:54;12.20;99.90
33414;DHT22;60055;41.884;12.534;2023-02-01T15:13:29;12.20;99.90
33414;DHT22;60055;41.884;12.534;2023-02-01T15:16:09;12.30;99.90
33414;DHT22;60055;41.884;12.534;2023-02-01T15:18:35;12.20;99.90
33414;DHT22;60055;41.884;12.534;2023-02-01T15:21:03;12.20;99.90
33414;DHT22;60055;41.884;12.534;2023-02-01T15:23:29;12.20;99.90
33414;DHT22;60055;41.884;12.534;2023-02-01T15:25:56;12.30;99.90
33414;DHT22;60055;41.884;12.534;2023-02-01T15:28:23;12.30;99.90
33414;DHT22;60055;41.884;12.534;2023-02-01T15:33:18;12.20;99.90
33414;DHT22;60055;41.884;12.534;2023-02-01T15:43:22;12.10;99.90
33414;DHT22;60055;41.884;12.534;2023-02-01T15:45:48;12.00;99.90
33414;DHT22;60055;41.884;12.534;2023-02-01T15:48:22;12.00;99.90
33414;DHT22;60055;41.884;12.534;2023-02-01T15:50:49;11.90;99.90
33414;DHT22;60055;41.884;12.534;2023-02-01T15:53:20;11.90;99.90
33414;DHT22;60055;41.884;12.534;2023-02-01T15:55:47;11.80;99.90
33414;DHT22;60055;41.884;12.534;2023-02-01T15:58:19;11.80;99.90
33414;DHT22;60055;41.884;12.534;2023-02-01T16:03:28;11.70;99.90
33414;DHT22;60055;41.884;12.534;2023-02-01T16:05:59;11.70;99.90
33414;DHT22;60055;41.884;12.534;2023-02-01T16:08:27;11.60;99.90
33414;DHT22;60055;41.884;12.534;2023-02-01T16:11:13;11.60;99.90
33414;DHT22;60055;41.884;12.534;2023-02-01T16:13:40;11.60;99.90
33414;DHT22;60055;41.884;12.534;2023-02-01T16:16:08;11.60;99.90
33414;DHT22;60055;41.884;12.534;2023-02-01T16:18:39;11.60;99.90
33414;DHT22;60055;41.884;12.534;2023-02-01T16:21:05;11.60;99.90
33414;DHT22;60055;41.884;12.534;2023-02-01T16:23:33;11.50;99.90
33414;DHT22;60055;41.884;12.534;2023-02-01T16:25:59;11.40;99.90
33414;DHT22;60055;41.884;12.534;2023-02-01T16:28:25;11.50;99.90
33414;DHT22;60055;41.884;12.534;2023-02-01T16:30:51;11.40;99.90
33414;DHT22;60055;41.884;12.534;2023-02-01T16:33:19;11.40;99.90
33414;DHT22;60055;41.884;12.534;2023-02-01T16:35:47;11.30;99.90
33414;DHT22;60055;41.884;12.534;2023-02-01T16:38:16;11.40;99.90
33414;DHT22;60055;41.884;12.534;2023-02-01T16:40:44;11.30;99.90
33414;DHT22;60055;41.884;12.534;2023-02-01T16:43:19;11.30;99.90
33414;DHT22;60055;41.884;12.534;2023-02-01T16:45:46;11.30;99.90
33414;DHT22;60055;41.884;12.534;2023-02-01T16:48:23;11.20;99.90
33414;DHT22;60055;41.884;12.534;2023-02-01T16:50:52;11.10;99.90
33414;DHT22;60055;41.884;12.534;2023-02-01T16:53:19;11.10;99.90
33414;DHT22;60055;41.884;12.534;2023-02-01T16:55:45;11.00;99.90
33414;DHT22;60055;41.884;12.534;2023-02-01T16:58:13;11.00;99.90
33414;DHT22;60055;41.884;12.534;2023-02-01T17:00:40;11.00;99.90
33414;DHT22;60055;41.884;12.534;2023-02-01T17:03:06;10.90;99.90
33414;DHT22;60055;41.884;12.534;2023-02-01T17:05:32;10.90;99.90
33414;DHT22;60055;41.884;12.534;2023-02-01T17:08:02;11.00;99.90
33414;DHT22;60055;41.884;12.534;2023-02-01T17:10:30;11.00;99.90
33414;DHT22;60055;41.884;12.534;2023-02-01T17:12:56;11.10;99.90
33414;DHT22;60055;41.884;12.534;2023-02-01T17:15:24;11.10;99.90
33414;DHT22;60055;41.884;12.534;2023-02-01T17:17:51;11.00;99.90
33414;DHT22;60055;41.884;12.534;2023-02-01T17:20:22;11.00;99.90
33414;DHT22;60055;41.884;12.534;2023-02-01T17:22:49;11.00;99.90
33414;DHT22;60055;41.884;12.534;2023-02-01T17:25:19;11.00;99.90
33414;DHT22;60055;41.884;12.534;2023-02-01T17:27:47;10.80;99.90
33414;DHT22;60055;41.884;12.534;2023-02-01T17:30:13;10.80;99.90
33414;DHT22;60055;41.884;12.534;2023-02-01T17:32:40;10.70;99.90
33414;DHT22;60055;41.884;12.534;2023-02-01T17:35:19;10.80;99.90
33414;DHT22;60055;41.884;12.534;2023-02-01T17:37:45;10.80;99.90
33414;DHT22;60055;41.884;12.534;2023-02-01T17:40:14;10.90;99.90
33414;DHT22;60055;41.884;12.534;2023-02-01T17:42:40;11.00;99.90
33414;DHT22;60055;41.884;12.534;2023-02-01T17:47:45;11.10;99.90
33414;DHT22;60055;41.884;12.534;2023-02-01T17:50:12;11.10;99.90
33414;DHT22;60055;41.884;12.534;2023-02-01T17:52:38;11.00;99.90
33414;DHT22;60055;41.884;12.534;2023-02-01T17:55:31;10.90;99.90
33414;DHT22;60055;41.884;12.534;2023-02-01T17:57:58;10.80;99.90
33414;DHT22;60055;41.884;12.534;2023-02-01T18:00:24;10.90;99.90
33414;DHT22;60055;41.884;12.534;2023-02-01T18:02:50;10.80;99.90
33414;DHT22;60055;41.884;12.534;2023-02-01T18:05:21;10.80;99.90
33414;DHT22;60055;41.884;12.534;2023-02-01T18:07:48;10.90;99.90
33414;DHT22;60055;41.884;12.534;2023-02-01T18:10:15;10.90;99.90
33414;DHT22;60055;41.884;12.534;2023-02-01T18:12:41;10.80;99.90
33414;DHT22;60055;41.884;12.534;2023-02-01T18:15:18;10.80;99.90
33414;DHT22;60055;41.884;12.534;2023-02-01T18:17:45;10.90;99.90
33414;DHT22;60055;41.884;12.534;2023-02-01T18:20:19;11.00;99.90
33414;DHT22;60055;41.884;12.534;2023-02-01T18:22:46;11.00;99.90
33414;DHT22;60055;41.884;12.534;2023-02-01T18:25:16;11.00;99.90
33414;DHT22;60055;41.884;12.534;2023-02-01T18:27:43;11.00;99.90
33414;DHT22;60055;41.884;12.534;2023-02-01T18:30:09;11.00;99.90